Acme, Wyoming
Current Conditions -  °F | °C
As of 5:53 PM on Friday 24 Oct 2014 (Local Time) from KSHR Reporting Station
Clear Clear  
Wind Chill: 56°   Ceiling: Unl
Heat Index: 56°   Visibility: 10mi
Dew Point: 33°   Wind: 8mph
Humidity: 42%   Direction: 360°N
Pressure: 30.07"   Gusts: NA
Location:  44.8885°N, 107.104°W
Report Text: KSHR 242353Z AUTO 36007KT 10SM CLR 13/01 A3007 RMK AO2 SLP183 T01330006 10206 20133 53014 TSNO
Loading
Personal Weather Stations






























Interactive Weather Map New forecast layout! Learn more

10-Day Weather Forecast

Advertisements
Track Severe Weather on mobile